sensor_id;sensor_type;location;lat;lon;timestamp;P1;durP1;ratioP1;P2;durP2;ratioP2
59207;SDS011;44977;53.132;6.408;2023-07-02T00:02:07;18.88;;;7.90;;
59207;SDS011;44977;53.132;6.408;2023-07-02T00:07:08;17.67;;;8.23;;
59207;SDS011;44977;53.132;6.408;2023-07-02T00:12:09;18.23;;;8.48;;
59207;SDS011;44977;53.132;6.408;2023-07-02T00:17:10;17.90;;;8.40;;
59207;SDS011;44977;53.132;6.408;2023-07-02T00:22:13;18.80;;;8.43;;
59207;SDS011;44977;53.132;6.408;2023-07-02T00:27:16;16.48;;;8.20;;
59207;SDS011;44977;53.132;6.408;2023-07-02T00:32:16;19.75;;;8.95;;
59207;SDS011;44977;53.132;6.408;2023-07-02T00:37:17;19.30;;;8.95;;
59207;SDS011;44977;53.132;6.408;2023-07-02T00:42:18;20.67;;;9.18;;
59207;SDS011;44977;53.132;6.408;2023-07-02T00:47:20;17.65;;;8.63;;
59207;SDS011;44977;53.132;6.408;2023-07-02T00:52:20;20.77;;;9.18;;
59207;SDS011;44977;53.132;6.408;2023-07-02T00:57:23;22.80;;;9.38;;
59207;SDS011;44977;53.132;6.408;2023-07-02T01:02:29;22.35;;;9.30;;
59207;SDS011;44977;53.132;6.408;2023-07-02T01:07:30;19.20;;;9.32;;
59207;SDS011;44977;53.132;6.408;2023-07-02T01:12:31;21.08;;;8.85;;
59207;SDS011;44977;53.132;6.408;2023-07-02T01:17:32;21.20;;;9.05;;
59207;SDS011;44977;53.132;6.408;2023-07-02T01:22:41;21.80;;;9.30;;
59207;SDS011;44977;53.132;6.408;2023-07-02T01:27:42;19.25;;;9.65;;
59207;SDS011;44977;53.132;6.408;2023-07-02T01:32:43;17.52;;;8.95;;
59207;SDS011;44977;53.132;6.408;2023-07-02T01:37:43;25.85;;;10.23;;
59207;SDS011;44977;53.132;6.408;2023-07-02T01:42:44;21.65;;;9.48;;
59207;SDS011;44977;53.132;6.408;2023-07-02T01:47:45;21.33;;;9.18;;
59207;SDS011;44977;53.132;6.408;2023-07-02T01:52:45;23.60;;;10.13;;
59207;SDS011;44977;53.132;6.408;2023-07-02T01:57:46;21.48;;;9.57;;
59207;SDS011;44977;53.132;6.408;2023-07-02T02:02:47;24.60;;;10.23;;
59207;SDS011;44977;53.132;6.408;2023-07-02T02:07:47;22.50;;;9.82;;
59207;SDS011;44977;53.132;6.408;2023-07-02T02:12:48;24.88;;;10.20;;
59207;SDS011;44977;53.132;6.408;2023-07-02T02:17:48;23.50;;;10.27;;
59207;SDS011;44977;53.132;6.408;2023-07-02T02:22:49;22.08;;;10.13;;
59207;SDS011;44977;53.132;6.408;2023-07-02T02:27:50;25.75;;;10.70;;
59207;SDS011;44977;53.132;6.408;2023-07-02T02:32:50;26.52;;;11.13;;
59207;SDS011;44977;53.132;6.408;2023-07-02T02:37:51;21.80;;;9.90;;
59207;SDS011;44977;53.132;6.408;2023-07-02T02:42:52;23.98;;;10.52;;
59207;SDS011;44977;53.132;6.408;2023-07-02T02:47:53;22.17;;;10.13;;
59207;SDS011;44977;53.132;6.408;2023-07-02T02:52:53;24.77;;;10.88;;
59207;SDS011;44977;53.132;6.408;2023-07-02T02:57:54;24.88;;;10.52;;
59207;SDS011;44977;53.132;6.408;2023-07-02T03:02:55;23.13;;;10.82;;
59207;SDS011;44977;53.132;6.408;2023-07-02T03:07:55;23.52;;;10.57;;
59207;SDS011;44977;53.132;6.408;2023-07-02T03:12:56;23.33;;;10.95;;
59207;SDS011;44977;53.132;6.408;2023-07-02T03:17:57;24.67;;;10.70;;
59207;SDS011;44977;53.132;6.408;2023-07-02T03:22:57;20.83;;;10.20;;
59207;SDS011;44977;53.132;6.408;2023-07-02T03:27:58;21.90;;;10.40;;
59207;SDS011;44977;53.132;6.408;2023-07-02T03:32:59;20.33;;;9.75;;
59207;SDS011;44977;53.132;6.408;2023-07-02T03:38:00;23.25;;;9.88;;
59207;SDS011;44977;53.132;6.408;2023-07-02T03:43:00;22.65;;;9.45;;
59207;SDS011;44977;53.132;6.408;2023-07-02T03:48:01;20.40;;;9.93;;
59207;SDS011;44977;53.132;6.408;2023-07-02T03:53:02;23.80;;;10.32;;
59207;SDS011;44977;53.132;6.408;2023-07-02T03:58:03;22.95;;;10.40;;
59207;SDS011;44977;53.132;6.408;2023-07-02T04:03:03;19.25;;;9.80;;
59207;SDS011;44977;53.132;6.408;2023-07-02T04:08:04;22.52;;;10.25;;
59207;SDS011;44977;53.132;6.408;2023-07-02T04:13:05;22.58;;;10.60;;
59207;SDS011;44977;53.132;6.408;2023-07-02T04:18:05;22.65;;;9.70;;
59207;SDS011;44977;53.132;6.408;2023-07-02T04:23:06;23.08;;;9.85;;
59207;SDS011;44977;53.132;6.408;2023-07-02T04:28:07;21.23;;;9.77;;
59207;SDS011;44977;53.132;6.408;2023-07-02T04:33:08;19.90;;;9.85;;
59207;SDS011;44977;53.132;6.408;2023-07-02T04:38:10;21.17;;;9.95;;
59207;SDS011;44977;53.132;6.408;2023-07-02T04:43:12;22.92;;;9.60;;
59207;SDS011;44977;53.132;6.408;2023-07-02T04:48:13;21.45;;;9.18;;
59207;SDS011;44977;53.132;6.408;2023-07-02T04:53:13;20.58;;;9.32;;
59207;SDS011;44977;53.132;6.408;2023-07-02T04:58:14;19.85;;;8.77;;
59207;SDS011;44977;53.132;6.408;2023-07-02T05:03:15;19.83;;;8.18;;
59207;SDS011;44977;53.132;6.408;2023-07-02T05:08:15;20.73;;;8.60;;
59207;SDS011;44977;53.132;6.408;2023-07-02T05:13:16;20.45;;;7.20;;
59207;SDS011;44977;53.132;6.408;2023-07-02T05:18:17;17.58;;;7.10;;
59207;SDS011;44977;53.132;6.408;2023-07-02T05:23:17;18.38;;;7.63;;
59207;SDS011;44977;53.132;6.408;2023-07-02T05:28:18;17.17;;;7.25;;
59207;SDS011;44977;53.132;6.408;2023-07-02T05:33:19;16.58;;;7.38;;
59207;SDS011;44977;53.132;6.408;2023-07-02T05:38:22;17.27;;;7.35;;
59207;SDS011;44977;53.132;6.408;2023-07-02T05:43:22;16.45;;;7.50;;
59207;SDS011;44977;53.132;6.408;2023-07-02T05:48:23;16.63;;;7.68;;
59207;SDS011;44977;53.132;6.408;2023-07-02T05:53:24;19.27;;;7.53;;
59207;SDS011;44977;53.132;6.408;2023-07-02T05:58:24;17.05;;;7.95;;
59207;SDS011;44977;53.132;6.408;2023-07-02T06:03:25;15.98;;;7.45;;
59207;SDS011;44977;53.132;6.408;2023-07-02T06:08:26;21.20;;;8.45;;
59207;SDS011;44977;53.132;6.408;2023-07-02T06:13:26;15.32;;;7.95;;
59207;SDS011;44977;53.132;6.408;2023-07-02T06:18:27;15.68;;;7.03;;
59207;SDS011;44977;53.132;6.408;2023-07-02T06:23:29;19.67;;;7.30;;
59207;SDS011;44977;53.132;6.408;2023-07-02T06:28:39;13.80;;;6.13;;
59207;SDS011;44977;53.132;6.408;2023-07-02T06:33:40;18.65;;;7.53;;
59207;SDS011;44977;53.132;6.408;2023-07-02T06:38:42;15.18;;;7.03;;
59207;SDS011;44977;53.132;6.408;2023-07-02T06:43:42;14.93;;;5.95;;
59207;SDS011;44977;53.132;6.408;2023-07-02T06:48:43;18.58;;;5.65;;
59207;SDS011;44977;53.132;6.408;2023-07-02T06:53:44;14.75;;;4.90;;
59207;SDS011;44977;53.132;6.408;2023-07-02T06:58:45;14.45;;;4.95;;
59207;SDS011;44977;53.132;6.408;2023-07-02T07:03:46;11.52;;;3.70;;
59207;SDS011;44977;53.132;6.408;2023-07-02T07:08:47;12.98;;;4.25;;
59207;SDS011;44977;53.132;6.408;2023-07-02T07:13:47;14.35;;;3.72;;
59207;SDS011;44977;53.132;6.408;2023-07-02T07:18:48;14.40;;;5.05;;
59207;SDS011;44977;53.132;6.408;2023-07-02T07:23:49;14.40;;;4.43;;
59207;SDS011;44977;53.132;6.408;2023-07-02T07:28:49;13.45;;;4.45;;
59207;SDS011;44977;53.132;6.408;2023-07-02T07:33:50;11.73;;;4.20;;
59207;SDS011;44977;53.132;6.408;2023-07-02T07:38:51;13.00;;;3.72;;
59207;SDS011;44977;53.132;6.408;2023-07-02T07:43:51;11.70;;;3.80;;
59207;SDS011;44977;53.132;6.408;2023-07-02T07:48:52;14.00;;;4.07;;
59207;SDS011;44977;53.132;6.408;2023-07-02T07:53:53;9.82;;;3.47;;
59207;SDS011;44977;53.132;6.408;2023-07-02T07:58:54;13.02;;;4.20;;
59207;SDS011;44977;53.132;6.408;2023-07-02T08:03:54;11.98;;;3.65;;
59207;SDS011;44977;53.132;6.408;2023-07-02T08:08:55;12.20;;;4.05;;
59207;SDS011;44977;53.132;6.408;2023-07-02T08:13:56;12.85;;;4.10;;
59207;SDS011;44977;53.132;6.408;2023-07-02T08:18:56;12.88;;;4.15;;
59207;SDS011;44977;53.132;6.408;2023-07-02T08:23:57;11.85;;;3.97;;
59207;SDS011;44977;53.132;6.408;2023-07-02T08:28:58;10.20;;;3.92;;
59207;SDS011;44977;53.132;6.408;2023-07-02T08:33:58;13.57;;;4.93;;
59207;SDS011;44977;53.132;6.408;2023-07-02T08:38:59;12.07;;;4.88;;
59207;SDS011;44977;53.132;6.408;2023-07-02T08:44:00;13.77;;;4.90;;
59207;SDS011;44977;53.132;6.408;2023-07-02T08:49:04;13.02;;;5.28;;
59207;SDS011;44977;53.132;6.408;2023-07-02T08:54:06;17.13;;;5.47;;
59207;SDS011;44977;53.132;6.408;2023-07-02T08:59:07;12.15;;;4.70;;
59207;SDS011;44977;53.132;6.408;2023-07-02T09:04:14;13.20;;;4.93;;
59207;SDS011;44977;53.132;6.408;2023-07-02T09:09:24;11.57;;;4.07;;
59207;SDS011;44977;53.132;6.408;2023-07-02T09:19:26;11.38;;;4.05;;
59207;SDS011;44977;53.132;6.408;2023-07-02T09:24:28;12.23;;;4.20;;
59207;SDS011;44977;53.132;6.408;2023-07-02T09:29:31;12.30;;;4.07;;
59207;SDS011;44977;53.132;6.408;2023-07-02T09:34:33;12.00;;;3.75;;
59207;SDS011;44977;53.132;6.408;2023-07-02T09:39:36;11.88;;;3.83;;
59207;SDS011;44977;53.132;6.408;2023-07-02T09:44:36;11.05;;;3.53;;
59207;SDS011;44977;53.132;6.408;2023-07-02T09:49:40;12.30;;;3.80;;
59207;SDS011;44977;53.132;6.408;2023-07-02T09:54:44;10.50;;;3.28;;
59207;SDS011;44977;53.132;6.408;2023-07-02T09:59:45;12.98;;;3.53;;
59207;SDS011;44977;53.132;6.408;2023-07-02T10:04:46;13.05;;;4.32;;
59207;SDS011;44977;53.132;6.408;2023-07-02T10:09:47;11.30;;;3.70;;
59207;SDS011;44977;53.132;6.408;2023-07-02T10:14:49;10.80;;;4.20;;
59207;SDS011;44977;53.132;6.408;2023-07-02T10:19:51;13.35;;;3.60;;
59207;SDS011;44977;53.132;6.408;2023-07-02T10:24:57;11.77;;;4.28;;
59207;SDS011;44977;53.132;6.408;2023-07-02T10:30:02;13.18;;;3.60;;
59207;SDS011;44977;53.132;6.408;2023-07-02T10:35:16;11.23;;;3.10;;
59207;SDS011;44977;53.132;6.408;2023-07-02T10:40:18;10.88;;;3.75;;
59207;SDS011;44977;53.132;6.408;2023-07-02T10:45:19;10.70;;;3.72;;
59207;SDS011;44977;53.132;6.408;2023-07-02T10:50:30;12.07;;;3.70;;
59207;SDS011;44977;53.132;6.408;2023-07-02T10:55:34;12.30;;;3.63;;
59207;SDS011;44977;53.132;6.408;2023-07-02T11:00:48;11.13;;;3.83;;
59207;SDS011;44977;53.132;6.408;2023-07-02T11:11:03;11.95;;;3.92;;
59207;SDS011;44977;53.132;6.408;2023-07-02T11:16:16;11.63;;;3.30;;
59207;SDS011;44977;53.132;6.408;2023-07-02T11:21:28;9.30;;;3.78;;
59207;SDS011;44977;53.132;6.408;2023-07-02T11:26:38;11.20;;;2.63;;
59207;SDS011;44977;53.132;6.408;2023-07-02T11:31:39;11.25;;;3.25;;
59207;SDS011;44977;53.132;6.408;2023-07-02T11:36:40;10.82;;;3.17;;
59207;SDS011;44977;53.132;6.408;2023-07-02T11:41:41;10.60;;;2.88;;
59207;SDS011;44977;53.132;6.408;2023-07-02T11:46:43;10.88;;;2.95;;
59207;SDS011;44977;53.132;6.408;2023-07-02T11:51:44;10.10;;;2.65;;
59207;SDS011;44977;53.132;6.408;2023-07-02T11:56:54;9.75;;;2.83;;
59207;SDS011;44977;53.132;6.408;2023-07-02T12:01:54;17.23;;;3.20;;
59207;SDS011;44977;53.132;6.408;2023-07-02T12:06:55;7.80;;;3.20;;
59207;SDS011;44977;53.132;6.408;2023-07-02T12:11:56;10.00;;;3.15;;
59207;SDS011;44977;53.132;6.408;2023-07-02T12:16:56;9.38;;;2.80;;
59207;SDS011;44977;53.132;6.408;2023-07-02T12:21:57;7.63;;;2.92;;
59207;SDS011;44977;53.132;6.408;2023-07-02T12:26:58;8.88;;;2.80;;
59207;SDS011;44977;53.132;6.408;2023-07-02T12:31:59;9.18;;;3.42;;
59207;SDS011;44977;53.132;6.408;2023-07-02T12:36:59;8.02;;;3.00;;
59207;SDS011;44977;53.132;6.408;2023-07-02T12:42:00;12.23;;;3.58;;
59207;SDS011;44977;53.132;6.408;2023-07-02T12:47:01;10.45;;;3.75;;
59207;SDS011;44977;53.132;6.408;2023-07-02T12:52:01;12.65;;;4.65;;
59207;SDS011;44977;53.132;6.408;2023-07-02T12:57:02;11.68;;;4.47;;
59207;SDS011;44977;53.132;6.408;2023-07-02T13:02:03;12.15;;;4.47;;
59207;SDS011;44977;53.132;6.408;2023-07-02T13:07:05;13.27;;;4.70;;
59207;SDS011;44977;53.132;6.408;2023-07-02T13:12:06;13.20;;;4.70;;
59207;SDS011;44977;53.132;6.408;2023-07-02T13:17:08;11.73;;;4.57;;
59207;SDS011;44977;53.132;6.408;2023-07-02T13:22:08;11.75;;;4.95;;
59207;SDS011;44977;53.132;6.408;2023-07-02T13:27:12;14.38;;;5.13;;
59207;SDS011;44977;53.132;6.408;2023-07-02T13:32:15;11.95;;;5.00;;
59207;SDS011;44977;53.132;6.408;2023-07-02T13:37:15;12.95;;;5.38;;
59207;SDS011;44977;53.132;6.408;2023-07-02T13:42:19;14.10;;;5.45;;
59207;SDS011;44977;53.132;6.408;2023-07-02T13:47:19;17.23;;;5.57;;
59207;SDS011;44977;53.132;6.408;2023-07-02T13:52:20;15.48;;;5.50;;
59207;SDS011;44977;53.132;6.408;2023-07-02T13:57:21;12.35;;;5.18;;
59207;SDS011;44977;53.132;6.408;2023-07-02T14:02:22;14.68;;;5.60;;
59207;SDS011;44977;53.132;6.408;2023-07-02T14:07:24;14.70;;;5.80;;
59207;SDS011;44977;53.132;6.408;2023-07-02T14:12:25;12.50;;;5.63;;
59207;SDS011;44977;53.132;6.408;2023-07-02T14:17:26;13.43;;;5.78;;
59207;SDS011;44977;53.132;6.408;2023-07-02T14:22:26;14.93;;;5.30;;
59207;SDS011;44977;53.132;6.408;2023-07-02T14:27:27;13.93;;;4.90;;
59207;SDS011;44977;53.132;6.408;2023-07-02T14:32:28;12.90;;;5.85;;
59207;SDS011;44977;53.132;6.408;2023-07-02T14:37:28;12.05;;;5.28;;
59207;SDS011;44977;53.132;6.408;2023-07-02T14:42:29;16.13;;;5.53;;
59207;SDS011;44977;53.132;6.408;2023-07-02T14:47:30;11.52;;;4.95;;
59207;SDS011;44977;53.132;6.408;2023-07-02T14:52:30;13.38;;;4.95;;
59207;SDS011;44977;53.132;6.408;2023-07-02T14:57:31;11.77;;;4.72;;
59207;SDS011;44977;53.132;6.408;2023-07-02T15:02:32;13.60;;;4.57;;
59207;SDS011;44977;53.132;6.408;2023-07-02T15:07:32;11.05;;;4.22;;
59207;SDS011;44977;53.132;6.408;2023-07-02T15:12:33;11.15;;;4.63;;
59207;SDS011;44977;53.132;6.408;2023-07-02T15:17:34;10.65;;;4.25;;
59207;SDS011;44977;53.132;6.408;2023-07-02T15:22:35;11.30;;;4.15;;
59207;SDS011;44977;53.132;6.408;2023-07-02T15:27:37;11.25;;;3.88;;
59207;SDS011;44977;53.132;6.408;2023-07-02T15:32:37;10.05;;;4.20;;
59207;SDS011;44977;53.132;6.408;2023-07-02T15:37:38;8.45;;;4.10;;
59207;SDS011;44977;53.132;6.408;2023-07-02T15:42:39;12.88;;;5.15;;
59207;SDS011;44977;53.132;6.408;2023-07-02T15:47:40;10.95;;;4.35;;
59207;SDS011;44977;53.132;6.408;2023-07-02T15:52:41;11.05;;;4.70;;
59207;SDS011;44977;53.132;6.408;2023-07-02T15:57:42;11.10;;;4.95;;
59207;SDS011;44977;53.132;6.408;2023-07-02T16:02:42;14.13;;;5.38;;
59207;SDS011;44977;53.132;6.408;2023-07-02T16:07:44;12.18;;;4.72;;
59207;SDS011;44977;53.132;6.408;2023-07-02T16:12:44;11.75;;;4.55;;
59207;SDS011;44977;53.132;6.408;2023-07-02T16:17:46;10.68;;;4.88;;
59207;SDS011;44977;53.132;6.408;2023-07-02T16:22:47;11.15;;;4.75;;
59207;SDS011;44977;53.132;6.408;2023-07-02T16:27:48;10.52;;;4.20;;
59207;SDS011;44977;53.132;6.408;2023-07-02T16:32:48;11.23;;;4.60;;
59207;SDS011;44977;53.132;6.408;2023-07-02T16:37:49;10.32;;;4.63;;
59207;SDS011;44977;53.132;6.408;2023-07-02T16:42:50;11.57;;;4.18;;
59207;SDS011;44977;53.132;6.408;2023-07-02T16:47:50;10.60;;;4.30;;
59207;SDS011;44977;53.132;6.408;2023-07-02T16:52:51;9.75;;;4.38;;
59207;SDS011;44977;53.132;6.408;2023-07-02T16:57:52;11.85;;;4.70;;
59207;SDS011;44977;53.132;6.408;2023-07-02T17:02:52;10.07;;;4.97;;
59207;SDS011;44977;53.132;6.408;2023-07-02T17:07:53;11.52;;;4.57;;
59207;SDS011;44977;53.132;6.408;2023-07-02T17:12:54;10.05;;;4.88;;
59207;SDS011;44977;53.132;6.408;2023-07-02T17:17:55;12.10;;;4.78;;
59207;SDS011;44977;53.132;6.408;2023-07-02T17:22:55;10.38;;;4.47;;
59207;SDS011;44977;53.132;6.408;2023-07-02T17:27:56;11.15;;;4.90;;
59207;SDS011;44977;53.132;6.408;2023-07-02T17:32:57;11.15;;;4.88;;
59207;SDS011;44977;53.132;6.408;2023-07-02T17:37:59;12.38;;;4.90;;
59207;SDS011;44977;53.132;6.408;2023-07-02T17:43:00;10.30;;;5.03;;
59207;SDS011;44977;53.132;6.408;2023-07-02T17:48:02;10.90;;;4.40;;
59207;SDS011;44977;53.132;6.408;2023-07-02T17:53:04;10.05;;;4.60;;
59207;SDS011;44977;53.132;6.408;2023-07-02T17:58:05;10.93;;;4.72;;
59207;SDS011;44977;53.132;6.408;2023-07-02T18:03:05;10.27;;;4.30;;
59207;SDS011;44977;53.132;6.408;2023-07-02T18:08:06;11.68;;;4.82;;
59207;SDS011;44977;53.132;6.408;2023-07-02T18:13:07;10.77;;;4.40;;
59207;SDS011;44977;53.132;6.408;2023-07-02T18:18:08;10.60;;;4.22;;
59207;SDS011;44977;53.132;6.408;2023-07-02T18:23:09;10.20;;;4.03;;
59207;SDS011;44977;53.132;6.408;2023-07-02T18:28:11;11.98;;;4.35;;
59207;SDS011;44977;53.132;6.408;2023-07-02T18:33:14;11.95;;;4.70;;
59207;SDS011;44977;53.132;6.408;2023-07-02T18:38:15;11.68;;;4.50;;
59207;SDS011;44977;53.132;6.408;2023-07-02T18:43:16;11.90;;;4.57;;
59207;SDS011;44977;53.132;6.408;2023-07-02T18:48:17;11.80;;;4.88;;
59207;SDS011;44977;53.132;6.408;2023-07-02T18:53:18;10.00;;;4.57;;
59207;SDS011;44977;53.132;6.408;2023-07-02T18:58:20;11.88;;;4.90;;
59207;SDS011;44977;53.132;6.408;2023-07-02T19:03:20;10.77;;;5.10;;
59207;SDS011;44977;53.132;6.408;2023-07-02T19:08:21;11.38;;;5.50;;
59207;SDS011;44977;53.132;6.408;2023-07-02T19:13:22;11.35;;;4.90;;
59207;SDS011;44977;53.132;6.408;2023-07-02T19:18:23;12.80;;;5.30;;
59207;SDS011;44977;53.132;6.408;2023-07-02T19:23:25;12.90;;;5.70;;
59207;SDS011;44977;53.132;6.408;2023-07-02T19:28:26;12.55;;;5.88;;
59207;SDS011;44977;53.132;6.408;2023-07-02T19:33:27;13.60;;;5.97;;
59207;SDS011;44977;53.132;6.408;2023-07-02T19:38:28;12.52;;;5.82;;
59207;SDS011;44977;53.132;6.408;2023-07-02T19:43:30;13.10;;;6.00;;
59207;SDS011;44977;53.132;6.408;2023-07-02T19:48:31;14.85;;;6.68;;
59207;SDS011;44977;53.132;6.408;2023-07-02T19:53:31;13.43;;;6.53;;
59207;SDS011;44977;53.132;6.408;2023-07-02T19:58:34;14.82;;;7.20;;
59207;SDS011;44977;53.132;6.408;2023-07-02T20:03:36;14.40;;;6.88;;
59207;SDS011;44977;53.132;6.408;2023-07-02T20:08:36;15.65;;;6.63;;
59207;SDS011;44977;53.132;6.408;2023-07-02T20:13:37;16.80;;;6.90;;
59207;SDS011;44977;53.132;6.408;2023-07-02T20:18:38;14.70;;;6.80;;
59207;SDS011;44977;53.132;6.408;2023-07-02T20:23:38;17.38;;;7.20;;
59207;SDS011;44977;53.132;6.408;2023-07-02T20:28:39;13.80;;;6.93;;
59207;SDS011;44977;53.132;6.408;2023-07-02T20:33:40;17.33;;;7.57;;
59207;SDS011;44977;53.132;6.408;2023-07-02T20:38:40;13.73;;;6.45;;
59207;SDS011;44977;53.132;6.408;2023-07-02T20:43:41;16.42;;;6.90;;
59207;SDS011;44977;53.132;6.408;2023-07-02T20:48:43;14.30;;;7.43;;
59207;SDS011;44977;53.132;6.408;2023-07-02T20:53:44;15.05;;;6.80;;
59207;SDS011;44977;53.132;6.408;2023-07-02T20:58:44;17.20;;;7.15;;
59207;SDS011;44977;53.132;6.408;2023-07-02T21:03:45;15.75;;;6.95;;
59207;SDS011;44977;53.132;6.408;2023-07-02T21:08:46;15.13;;;7.45;;
59207;SDS011;44977;53.132;6.408;2023-07-02T21:13:46;14.63;;;6.85;;
59207;SDS011;44977;53.132;6.408;2023-07-02T21:18:47;16.85;;;6.68;;
59207;SDS011;44977;53.132;6.408;2023-07-02T21:23:48;13.43;;;6.00;;
59207;SDS011;44977;53.132;6.408;2023-07-02T21:28:48;14.40;;;6.28;;
59207;SDS011;44977;53.132;6.408;2023-07-02T21:33:49;16.63;;;6.35;;
59207;SDS011;44977;53.132;6.408;2023-07-02T21:38:50;14.60;;;5.93;;
59207;SDS011;44977;53.132;6.408;2023-07-02T21:43:50;13.57;;;5.80;;
59207;SDS011;44977;53.132;6.408;2023-07-02T21:48:51;15.55;;;5.85;;
59207;SDS011;44977;53.132;6.408;2023-07-02T21:53:52;13.23;;;5.82;;
59207;SDS011;44977;53.132;6.408;2023-07-02T21:58:52;15.48;;;5.72;;
59207;SDS011;44977;53.132;6.408;2023-07-02T22:03:53;13.07;;;5.68;;
59207;SDS011;44977;53.132;6.408;2023-07-02T22:08:54;12.88;;;5.30;;
59207;SDS011;44977;53.132;6.408;2023-07-02T22:13:54;15.18;;;5.72;;
59207;SDS011;44977;53.132;6.408;2023-07-02T22:18:55;15.88;;;5.50;;
59207;SDS011;44977;53.132;6.408;2023-07-02T22:23:56;14.27;;;5.35;;
59207;SDS011;44977;53.132;6.408;2023-07-02T22:28:56;12.90;;;5.35;;
59207;SDS011;44977;53.132;6.408;2023-07-02T22:33:57;12.77;;;5.38;;
59207;SDS011;44977;53.132;6.408;2023-07-02T22:38:58;14.20;;;5.97;;
59207;SDS011;44977;53.132;6.408;2023-07-02T22:43:58;13.48;;;5.18;;
59207;SDS011;44977;53.132;6.408;2023-07-02T22:48:59;14.98;;;5.05;;
59207;SDS011;44977;53.132;6.408;2023-07-02T22:54:00;15.38;;;5.10;;
59207;SDS011;44977;53.132;6.408;2023-07-02T22:59:00;13.48;;;4.90;;
59207;SDS011;44977;53.132;6.408;2023-07-02T23:04:01;14.60;;;5.43;;
59207;SDS011;44977;53.132;6.408;2023-07-02T23:09:02;13.32;;;5.15;;
59207;SDS011;44977;53.132;6.408;2023-07-02T23:14:03;15.18;;;4.95;;
59207;SDS011;44977;53.132;6.408;2023-07-02T23:19:04;12.93;;;4.78;;
59207;SDS011;44977;53.132;6.408;2023-07-02T23:24:04;12.75;;;4.88;;
59207;SDS011;44977;53.132;6.408;2023-07-02T23:29:05;13.15;;;5.20;;
59207;SDS011;44977;53.132;6.408;2023-07-02T23:34:06;16.52;;;5.13;;
59207;SDS011;44977;53.132;6.408;2023-07-02T23:39:07;12.60;;;4.90;;
59207;SDS011;44977;53.132;6.408;2023-07-02T23:44:08;14.35;;;4.90;;
59207;SDS011;44977;53.132;6.408;2023-07-02T23:49:09;12.20;;;4.53;;
59207;SDS011;44977;53.132;6.408;2023-07-02T23:54:10;12.32;;;5.03;;
59207;SDS011;44977;53.132;6.408;2023-07-02T23:59:11;11.63;;;4.55;;
